Time;durP1;ratioP1;P1;durP2;ratioP2;P2;SDS_P1;SDS_P2;PMS_P1;PMS_P2;Temp;Humidity;BMP_temperature;BMP_pressure;BME280_temperature;BME280_humidity;BME280_pressure;Samples;Min_cycle;Max_cycle;Signal;HPM_P1;HPM_P2
2024/03/16 00:01:27;;;;;;;3.97;3.47;;;13.10;99.90;;;;;;6082235;23;20932;-56
2024/03/16 00:03:54;;;;;;;3.93;3.30;;;13.10;99.90;;;;;;6081898;23;20466;-57
2024/03/16 00:06:21;;;;;;;4.00;3.20;;;13.10;99.90;;;;;;6082818;23;20407;-59
2024/03/16 00:08:48;;;;;;;3.30;3.00;;;13.00;99.90;;;;;;6082170;23;20410;-57
2024/03/16 00:11:15;;;;;;;4.37;2.50;;;13.00;99.90;;;;;;6081552;23;20406;-60
2024/03/16 00:13:42;;;;;;;3.80;3.07;;;12.90;99.90;;;;;;6083775;23;20478;-56
2024/03/16 00:16:09;;;;;;;5.17;3.30;;;12.90;99.90;;;;;;6083609;23;20454;-58
2024/03/16 00:18:36;;;;;;;4.70;3.00;;;12.90;99.90;;;;;;6082620;23;20475;-60
2024/03/16 00:21:04;;;;;;;6.10;3.60;;;12.90;99.90;;;;;;6082855;23;20413;-60
2024/03/16 00:23:31;;;;;;;7.40;3.50;;;12.90;99.90;;;;;;6084098;23;20938;-56
2024/03/16 00:25:58;;;;;;;5.00;3.80;;;12.90;99.90;;;;;;6083963;23;20399;-59
2024/03/16 00:28:24;;;;;;;13.47;9.13;;;12.90;99.90;;;;;;6080673;23;20414;-60
2024/03/16 00:30:52;;;;;;;4.30;3.53;;;12.90;99.90;;;;;;6075663;23;20463;-57
2024/03/16 00:33:19;;;;;;;7.13;3.70;;;13.00;99.90;;;;;;6076528;23;20436;-58
2024/03/16 00:35:46;;;;;;;5.13;3.80;;;12.90;99.90;;;;;;6076706;23;20886;-58
2024/03/16 00:38:14;;;;;;;4.40;3.07;;;13.00;99.90;;;;;;6076134;23;20475;-59
2024/03/16 00:40:41;;;;;;;6.77;3.23;;;13.00;99.90;;;;;;6076774;23;20487;-59
2024/03/16 00:43:08;;;;;;;3.60;3.30;;;13.00;99.90;;;;;;6075691;23;20424;-60
2024/03/16 00:45:35;;;;;;;3.83;3.10;;;13.00;99.90;;;;;;6075946;23;20403;-59
2024/03/16 00:48:04;;;;;;;3.23;2.80;;;13.00;99.90;;;;;;6076449;23;20396;-55
2024/03/16 00:50:32;;;;;;;4.40;3.20;;;12.90;99.90;;;;;;6076083;23;20407;-58
2024/03/16 00:52:59;;;;;;;4.40;3.00;;;12.90;99.90;;;;;;6075184;23;20420;-58
2024/03/16 00:55:26;;;;;;;3.63;3.13;;;12.80;99.90;;;;;;6076897;23;20776;-60
2024/03/16 00:57:53;;;;;;;5.47;3.27;;;12.90;99.90;;;;;;6077979;23;20507;-60
2024/03/16 01:00:20;;;;;;;4.40;3.40;;;12.90;99.90;;;;;;6078005;23;20408;-59
2024/03/16 01:02:47;;;;;;;4.87;3.60;;;12.80;99.90;;;;;;6077089;23;20758;-59
2024/03/16 01:05:14;;;;;;;6.10;3.43;;;12.80;99.90;;;;;;6076761;23;20400;-59
2024/03/16 01:07:41;;;;;;;3.33;2.93;;;12.80;99.90;;;;;;6077374;23;20883;-59
2024/03/16 01:10:11;;;;;;;4.27;3.17;;;12.90;99.90;;;;;;6076998;23;20423;-60
2024/03/16 01:12:38;;;;;;;5.10;2.90;;;13.00;99.90;;;;;;6076677;23;20427;-56
2024/03/16 01:15:05;;;;;;;4.30;2.93;;;12.90;99.90;;;;;;6075968;23;20428;-57
2024/03/16 01:17:32;;;;;;;3.93;3.47;;;12.90;99.90;;;;;;6076731;23;20451;-54
2024/03/16 01:19:59;;;;;;;3.20;2.63;;;12.80;99.90;;;;;;6075967;23;20464;-55
2024/03/16 01:22:26;;;;;;;3.87;3.20;;;12.70;99.90;;;;;;6075130;23;20493;-58
2024/03/16 01:24:53;;;;;;;3.00;2.67;;;12.70;99.90;;;;;;6077266;23;21032;-56
2024/03/16 01:27:20;;;;;;;3.77;3.37;;;12.70;99.90;;;;;;6077581;23;20408;-56
2024/03/16 01:29:47;;;;;;;10.03;3.40;;;12.60;99.90;;;;;;6076789;23;20400;-53
2024/03/16 01:32:14;;;;;;;3.87;2.50;;;12.60;99.90;;;;;;6077758;23;20954;-58
2024/03/16 01:34:41;;;;;;;4.13;2.93;;;12.60;99.90;;;;;;6078938;23;20400;-57
2024/03/16 01:37:10;;;;;;;3.13;2.20;;;12.60;99.90;;;;;;6079108;23;20403;-57
2024/03/16 01:39:37;;;;;;;3.80;2.70;;;12.70;99.90;;;;;;6078693;23;20443;-57
2024/03/16 01:42:06;;;;;;;3.00;2.33;;;12.70;99.90;;;;;;6078791;23;20491;-56
2024/03/16 01:44:33;;;;;;;3.50;2.40;;;12.70;99.90;;;;;;6078818;23;20411;-56
2024/03/16 01:47:00;;;;;;;2.80;2.03;;;12.70;99.90;;;;;;6079632;23;20479;-59
2024/03/16 01:49:27;;;;;;;3.70;2.90;;;12.70;99.90;;;;;;6080793;23;20436;-60
2024/03/16 01:51:54;;;;;;;4.43;3.43;;;12.70;99.90;;;;;;6079451;23;20428;-57
2024/03/16 01:54:21;;;;;;;3.67;2.53;;;12.70;99.90;;;;;;6080261;23;20412;-59
2024/03/16 01:56:51;;;;;;;7.77;3.33;;;12.80;99.90;;;;;;6080146;23;20407;-58
2024/03/16 01:59:19;;;;;;;3.60;2.60;;;12.80;99.90;;;;;;6080088;23;20938;-57
2024/03/16 02:01:46;;;;;;;2.93;2.07;;;12.80;99.90;;;;;;6078409;23;20423;-58
2024/03/16 02:04:13;;;;;;;5.10;2.40;;;12.80;99.90;;;;;;6078497;23;20407;-58
2024/03/16 02:06:39;;;;;;;3.33;2.73;;;12.80;99.90;;;;;;6079083;23;20404;-53
2024/03/16 02:09:10;;;;;;;3.47;2.50;;;12.80;99.90;;;;;;6079287;23;20440;-58
2024/03/16 02:11:37;;;;;;;4.60;2.73;;;12.80;99.90;;;;;;6078732;23;20735;-59
2024/03/16 02:14:04;;;;;;;3.20;2.90;;;12.80;99.90;;;;;;6077998;23;20419;-57
2024/03/16 02:16:31;;;;;;;3.80;2.70;;;12.80;99.90;;;;;;6077643;23;20403;-59
2024/03/16 02:18:58;;;;;;;4.53;2.53;;;12.80;99.90;;;;;;6077350;23;20471;-57
2024/03/16 02:21:25;;;;;;;3.50;3.00;;;12.80;99.90;;;;;;6076054;23;20431;-59
2024/03/16 02:23:52;;;;;;;4.40;2.90;;;12.80;99.90;;;;;;6076329;23;20442;-59
2024/03/16 02:26:19;;;;;;;2.70;2.27;;;12.80;99.90;;;;;;6077695;23;20404;-58
2024/03/16 02:28:46;;;;;;;4.40;3.20;;;12.80;99.90;;;;;;6078739;23;20418;-54
2024/03/16 02:31:13;;;;;;;6.33;2.60;;;12.80;99.90;;;;;;6078028;23;20420;-59
2024/03/16 02:33:40;;;;;;;2.87;2.57;;;12.80;99.90;;;;;;6079347;23;20464;-57
2024/03/16 02:36:07;;;;;;;7.13;2.50;;;12.70;99.90;;;;;;6077870;23;20463;-56
2024/03/16 02:38:34;;;;;;;5.20;2.53;;;12.70;99.90;;;;;;6077628;23;20519;-56
2024/03/16 02:41:02;;;;;;;3.73;2.73;;;12.70;99.90;;;;;;6077084;23;20404;-58
2024/03/16 02:43:29;;;;;;;3.37;2.60;;;12.60;99.90;;;;;;6076843;23;20422;-59
2024/03/16 02:45:58;;;;;;;5.10;2.43;;;12.70;99.90;;;;;;6077167;23;20400;-59
2024/03/16 02:48:26;;;;;;;2.77;2.37;;;12.70;99.90;;;;;;6076516;23;20825;-58
2024/03/16 02:50:53;;;;;;;5.63;2.77;;;12.70;99.90;;;;;;6078384;23;20496;-57
2024/03/16 02:53:20;;;;;;;4.00;2.13;;;12.70;99.90;;;;;;6078524;23;20424;-57
2024/03/16 02:55:47;;;;;;;23.43;13.03;;;12.70;99.90;;;;;;6078523;23;20428;-57
2024/03/16 02:58:14;;;;;;;7.20;4.37;;;12.70;99.90;;;;;;6078734;23;20464;-57
2024/03/16 03:00:41;;;;;;;4.10;2.60;;;12.70;99.90;;;;;;6077033;23;20436;-58
2024/03/16 03:03:08;;;;;;;2.23;1.97;;;12.70;99.90;;;;;;6076134;23;20946;-56
2024/03/16 03:05:35;;;;;;;3.17;2.87;;;12.70;99.90;;;;;;6076981;23;20440;-59
2024/03/16 03:08:04;;;;;;;3.50;2.63;;;12.70;99.90;;;;;;6077116;23;20407;-57
2024/03/16 03:10:32;;;;;;;5.20;2.60;;;12.70;99.90;;;;;;6077869;23;20738;-58
2024/03/16 03:12:59;;;;;;;3.03;2.17;;;12.70;99.90;;;;;;6077587;23;20464;-58
2024/03/16 03:15:27;;;;;;;2.37;2.10;;;12.60;99.90;;;;;;6076957;23;20414;-58
2024/03/16 03:17:54;;;;;;;3.00;2.13;;;12.70;99.90;;;;;;6077036;23;20722;-56
2024/03/16 03:20:23;;;;;;;3.17;2.20;;;12.60;99.90;;;;;;6076925;23;20400;-59
2024/03/16 03:22:50;;;;;;;4.43;2.87;;;12.70;99.90;;;;;;6076214;23;20487;-59
2024/03/16 03:25:18;;;;;;;2.23;2.03;;;12.70;99.90;;;;;;6076982;23;20467;-56
2024/03/16 03:27:45;;;;;;;2.70;2.17;;;12.60;99.90;;;;;;6078171;23;20471;-59
2024/03/16 03:30:12;;;;;;;3.30;2.13;;;12.60;99.90;;;;;;6082921;23;20406;-58
2024/03/16 03:32:42;;;;;;;4.37;2.60;;;12.60;99.90;;;;;;6083603;23;20427;-57
2024/03/16 03:35:12;;;;;;;3.30;2.10;;;12.60;99.90;;;;;;6082720;23;20410;-60
2024/03/16 03:37:39;;;;;;;4.77;2.20;;;12.60;99.90;;;;;;6084665;23;20411;-59
2024/03/16 03:40:07;;;;;;;6.30;2.43;;;12.60;99.90;;;;;;6083230;23;20443;-56
2024/03/16 03:42:35;;;;;;;3.17;2.10;;;12.60;99.90;;;;;;6082129;23;21066;-58
2024/03/16 03:45:11;;;;;;;2.63;1.50;;;12.60;99.90;;;;;;6082012;23;20741;-60
2024/03/16 03:47:49;;;;;;;3.23;2.37;;;12.60;99.90;;;;;;6083253;23;20500;-55
2024/03/16 03:50:26;;;;;;;3.37;2.00;;;12.60;99.90;;;;;;6084835;23;20858;-59
2024/03/16 03:52:53;;;;;;;3.00;2.60;;;12.60;99.90;;;;;;6084437;23;20419;-59
2024/03/16 03:55:20;;;;;;;2.43;2.00;;;12.50;99.90;;;;;;6082190;23;20885;-56
2024/03/16 03:57:47;;;;;;;3.30;2.43;;;12.50;99.90;;;;;;6081208;23;20403;-56
2024/03/16 04:00:15;;;;;;;3.20;2.10;;;12.60;99.90;;;;;;6081099;23;20443;-58
2024/03/16 04:02:42;;;;;;;3.17;2.40;;;12.60;99.90;;;;;;6081146;23;20930;-57
2024/03/16 04:05:09;;;;;;;7.20;2.40;;;12.60;99.90;;;;;;6079972;23;20406;-57
2024/03/16 04:07:36;;;;;;;2.87;1.77;;;12.60;99.90;;;;;;6080613;23;20908;-58
2024/03/16 04:10:04;;;;;;;3.60;2.10;;;12.60;99.90;;;;;;6081314;23;20775;-59
2024/03/16 04:12:34;;;;;;;3.00;2.00;;;12.50;99.90;;;;;;6081467;23;20940;-59
2024/03/16 04:15:01;;;;;;;2.20;2.00;;;12.50;99.90;;;;;;6081503;23;20399;-59
2024/03/16 04:17:28;;;;;;;4.07;2.30;;;12.50;99.90;;;;;;6080490;23;20403;-58
2024/03/16 04:19:55;;;;;;;2.70;1.77;;;12.50;99.90;;;;;;6081609;23;20439;-55
2024/03/16 04:22:22;;;;;;;2.47;2.13;;;12.50;99.90;;;;;;6081261;23;20431;-58
2024/03/16 04:24:49;;;;;;;3.37;2.07;;;12.50;99.90;;;;;;6079692;23;20410;-57
2024/03/16 04:27:16;;;;;;;4.63;2.37;;;12.40;99.90;;;;;;6082538;23;20403;-57
2024/03/16 04:29:43;;;;;;;4.50;2.67;;;12.40;99.90;;;;;;6083036;23;20482;-59
2024/03/16 04:32:11;;;;;;;2.57;2.20;;;12.40;99.90;;;;;;6076842;23;20427;-60
2024/03/16 04:34:39;;;;;;;4.83;2.77;;;12.40;99.90;;;;;;6078873;23;20439;-60
2024/03/16 04:37:06;;;;;;;2.67;1.70;;;12.40;99.90;;;;;;6079004;23;20404;-59
2024/03/16 04:39:33;;;;;;;1.80;1.63;;;12.40;99.90;;;;;;6079417;23;20443;-59
2024/03/16 04:42:00;;;;;;;2.23;1.77;;;12.40;99.90;;;;;;6075846;23;20439;-57
2024/03/16 04:44:27;;;;;;;1.90;1.70;;;12.40;99.90;;;;;;6075803;23;20404;-59
2024/03/16 04:46:54;;;;;;;2.10;1.67;;;12.30;99.90;;;;;;6075943;23;20408;-55
2024/03/16 04:49:21;;;;;;;4.43;2.17;;;12.30;99.90;;;;;;6075094;23;20535;-58
2024/03/16 04:51:48;;;;;;;2.13;1.83;;;12.20;99.90;;;;;;6076031;23;20420;-57
2024/03/16 04:54:15;;;;;;;10.37;2.30;;;12.20;99.90;;;;;;6076024;23;20496;-58
2024/03/16 04:56:42;;;;;;;2.07;1.60;;;12.20;99.90;;;;;;6076024;23;20400;-57
2024/03/16 04:59:11;;;;;;;2.73;2.07;;;12.10;99.90;;;;;;6076237;23;20447;-57
2024/03/16 05:01:38;;;;;;;3.30;2.30;;;12.10;99.90;;;;;;6076372;23;20902;-58
2024/03/16 05:04:05;;;;;;;8.97;2.53;;;12.10;99.90;;;;;;6076866;23;20458;-57
2024/03/16 05:06:33;;;;;;;4.63;2.30;;;12.10;99.90;;;;;;6079545;23;20953;-56
2024/03/16 05:09:04;;;;;;;2.40;2.03;;;12.00;99.90;;;;;;6079711;23;20404;-58
2024/03/16 05:11:31;;;;;;;2.30;1.63;;;11.90;99.90;;;;;;6079196;23;20408;-58
2024/03/16 05:13:59;;;;;;;3.00;2.20;;;11.90;99.90;;;;;;6079059;23;20926;-58
2024/03/16 05:16:26;;;;;;;3.53;1.83;;;11.90;99.90;;;;;;6079942;23;20404;-58
2024/03/16 05:18:53;;;;;;;2.33;1.60;;;11.90;99.90;;;;;;6079841;23;20447;-59
2024/03/16 05:21:21;;;;;;;3.13;2.10;;;11.90;99.90;;;;;;6079957;23;20404;-57
2024/03/16 05:23:48;;;;;;;4.30;2.20;;;11.90;99.90;;;;;;6079846;23;20416;-59
2024/03/16 05:26:15;;;;;;;2.20;1.60;;;11.80;99.90;;;;;;6079528;23;20513;-58
2024/03/16 05:28:42;;;;;;;7.60;3.17;;;11.80;99.90;;;;;;6079410;23;20793;-58
2024/03/16 05:31:10;;;;;;;2.90;2.20;;;11.80;99.90;;;;;;6079146;23;20411;-58
2024/03/16 05:33:37;;;;;;;2.70;2.00;;;11.80;99.90;;;;;;6078312;23;20930;-59
2024/03/16 05:36:09;;;;;;;3.53;2.17;;;11.80;99.90;;;;;;6078389;23;20422;-58
2024/03/16 05:38:37;;;;;;;2.63;1.97;;;11.70;99.90;;;;;;6078277;23;20486;-58
2024/03/16 05:41:06;;;;;;;7.37;2.83;;;11.70;99.90;;;;;;6079077;23;20404;-59
2024/03/16 05:43:33;;;;;;;1.80;1.47;;;11.60;99.90;;;;;;6078043;23;20759;-60
2024/03/16 05:46:00;;;;;;;4.87;2.00;;;11.60;99.90;;;;;;6077317;23;20400;-57
2024/03/16 05:48:27;;;;;;;2.80;1.53;;;11.60;99.90;;;;;;6077602;23;20411;-59
2024/03/16 05:50:55;;;;;;;3.47;1.90;;;11.60;99.90;;;;;;6078133;23;20507;-59
2024/03/16 05:53:21;;;;;;;1.73;1.60;;;11.60;99.90;;;;;;6079027;23;20455;-59
2024/03/16 05:55:50;;;;;;;3.20;1.43;;;11.60;99.90;;;;;;6078981;23;20404;-60
2024/03/16 05:58:17;;;;;;;2.23;1.50;;;11.70;99.90;;;;;;6079673;23;20408;-59
2024/03/16 06:00:44;;;;;;;4.40;2.50;;;11.70;99.90;;;;;;6080031;23;20443;-57
2024/03/16 06:03:11;;;;;;;4.27;2.03;;;11.70;99.90;;;;;;6078396;23;20463;-60
2024/03/16 06:05:38;;;;;;;2.30;1.80;;;11.70;99.90;;;;;;6079666;23;20895;-56
2024/03/16 06:08:05;;;;;;;3.00;2.20;;;11.70;99.90;;;;;;6079384;23;20400;-55
2024/03/16 06:10:32;;;;;;;9.27;2.00;;;11.70;99.90;;;;;;6078915;23;20404;-58
2024/03/16 06:12:59;;;;;;;2.20;1.43;;;11.70;99.90;;;;;;6079109;23;20423;-57
2024/03/16 06:15:26;;;;;;;5.17;1.97;;;11.70;99.90;;;;;;6079724;23;20404;-57
2024/03/16 06:17:53;;;;;;;2.50;1.50;;;11.70;99.90;;;;;;6079150;23;20401;-58
2024/03/16 06:20:20;;;;;;;2.80;1.23;;;11.70;99.90;;;;;;6076762;23;20471;-57
2024/03/16 06:22:48;;;;;;;3.43;1.30;;;11.70;99.90;;;;;;6077031;23;20452;-59
2024/03/16 06:25:16;;;;;;;1.70;1.27;;;11.70;99.90;;;;;;6077643;23;20408;-56
2024/03/16 06:27:49;;;;;;;2.90;1.67;;;11.70;99.90;;;;;;6078802;23;20501;-56
2024/03/16 06:30:16;;;;;;;2.20;1.63;;;11.80;99.90;;;;;;6084679;23;20414;-57
2024/03/16 06:33:05;;;;;;;1.77;1.27;;;11.80;99.90;;;;;;6082439;23;20423;-58
2024/03/16 06:35:32;;;;;;;1.43;1.17;;;11.90;99.90;;;;;;6091996;23;20403;-58
2024/03/16 06:37:59;;;;;;;4.13;1.70;;;11.90;99.90;;;;;;6082611;23;20416;-59
2024/03/16 06:40:26;;;;;;;3.20;1.50;;;12.00;99.90;;;;;;6083494;23;20831;-60
2024/03/16 06:42:53;;;;;;;2.47;1.60;;;12.10;99.90;;;;;;6082973;23;20451;-59
2024/03/16 06:45:20;;;;;;;2.10;1.33;;;12.10;99.90;;;;;;6083238;23;20427;-55
2024/03/16 06:47:47;;;;;;;2.50;1.13;;;12.20;99.90;;;;;;6083137;23;20407;-58
2024/03/16 06:50:14;;;;;;;4.03;1.23;;;12.30;99.90;;;;;;6083195;23;20404;-58
2024/03/16 06:52:41;;;;;;;2.97;1.27;;;12.30;99.90;;;;;;6082730;23;20419;-58
2024/03/16 06:55:08;;;;;;;5.77;1.40;;;12.30;99.90;;;;;;6082628;23;20450;-60
2024/03/16 06:57:35;;;;;;;3.30;1.70;;;12.30;99.90;;;;;;6083093;23;20923;-59
2024/03/16 07:00:03;;;;;;;2.70;1.50;;;12.20;99.90;;;;;;6086440;23;20443;-60
2024/03/16 07:02:30;;;;;;;2.77;1.80;;;12.20;99.90;;;;;;6085676;23;20447;-59
2024/03/16 07:05:01;;;;;;;3.00;1.47;;;12.20;99.90;;;;;;6083145;23;20419;-59
2024/03/16 07:07:30;;;;;;;1.93;1.30;;;12.20;99.90;;;;;;6083273;23;20390;-59
2024/03/16 07:09:57;;;;;;;1.53;1.13;;;12.20;99.90;;;;;;6082860;23;20411;-59
2024/03/16 07:12:24;;;;;;;2.17;1.20;;;12.30;99.90;;;;;;6082037;23;20423;-56
2024/03/16 07:14:51;;;;;;;2.10;1.53;;;12.30;99.90;;;;;;6082283;23;20407;-56
2024/03/16 07:17:18;;;;;;;1.63;1.33;;;12.30;99.90;;;;;;6083055;23;20442;-58
2024/03/16 07:19:45;;;;;;;7.13;1.47;;;12.30;99.90;;;;;;6082918;23;20446;-57
2024/03/16 07:22:12;;;;;;;7.20;2.10;;;12.30;99.90;;;;;;6081928;23;20435;-58
2024/03/16 07:24:42;;;;;;;2.10;1.37;;;12.40;99.90;;;;;;6081850;23;20407;-59
2024/03/16 07:27:09;;;;;;;1.80;1.43;;;12.40;99.90;;;;;;6081734;23;20471;-60
2024/03/16 07:29:37;;;;;;;1.80;1.30;;;12.40;99.90;;;;;;6085002;23;20951;-59
2024/03/16 07:32:04;;;;;;;2.87;1.80;;;12.40;99.90;;;;;;6078879;23;20439;-56
2024/03/16 07:34:32;;;;;;;2.20;1.37;;;12.30;99.90;;;;;;6079138;23;20408;-60
2024/03/16 07:36:59;;;;;;;3.90;1.37;;;12.40;99.90;;;;;;6079723;23;20776;-59
2024/03/16 07:39:26;;;;;;;2.77;1.33;;;12.30;99.90;;;;;;6078368;23;20448;-57
2024/03/16 07:41:53;;;;;;;4.23;1.30;;;12.30;99.90;;;;;;6078677;23;20499;-54
2024/03/16 07:44:20;;;;;;;2.73;1.67;;;12.30;99.90;;;;;;6077772;23;20747;-56
2024/03/16 07:46:48;;;;;;;4.73;1.20;;;12.30;99.90;;;;;;6077474;23;20482;-61
2024/03/16 07:49:15;;;;;;;3.07;1.57;;;12.30;99.90;;;;;;6078313;23;20419;-55
2024/03/16 07:51:43;;;;;;;5.23;1.13;;;12.30;99.90;;;;;;6076805;23;20449;-60
2024/03/16 07:54:12;;;;;;;3.70;1.80;;;12.30;99.90;;;;;;6076717;23;20415;-60
2024/03/16 07:56:39;;;;;;;3.47;1.50;;;12.30;99.90;;;;;;6077178;23;20404;-59
2024/03/16 07:59:09;;;;;;;2.70;1.40;;;12.40;99.90;;;;;;6077272;23;20482;-61
2024/03/16 08:01:36;;;;;;;4.57;1.50;;;12.40;99.90;;;;;;6077380;23;20427;-58
2024/03/16 08:04:03;;;;;;;5.20;1.60;;;12.50;99.90;;;;;;6077404;23;20404;-60
2024/03/16 08:06:30;;;;;;;2.33;1.73;;;12.50;99.90;;;;;;6077132;23;20476;-57
2024/03/16 08:08:57;;;;;;;2.13;1.23;;;12.50;99.90;;;;;;6076908;23;20404;-60
2024/03/16 08:11:24;;;;;;;3.27;1.27;;;12.50;99.90;;;;;;6076691;23;20479;-59
2024/03/16 08:13:51;;;;;;;4.27;1.93;;;12.50;99.90;;;;;;6077016;23;20400;-57
2024/03/16 08:16:18;;;;;;;1.60;1.30;;;12.60;99.90;;;;;;6077017;23;20404;-58
2024/03/16 08:18:46;;;;;;;4.03;1.43;;;12.60;99.90;;;;;;6077510;23;20707;-58
2024/03/16 08:21:14;;;;;;;4.30;1.30;;;12.70;99.90;;;;;;6078667;23;20467;-59
2024/03/16 08:24:02;;;;;;;9.43;1.70;;;12.70;99.90;;;;;;6076270;23;20515;-60
2024/03/16 08:26:47;;;;;;;5.17;1.60;;;12.70;99.90;;;;;;6057937;23;20412;-60
2024/03/16 08:29:15;;;;;;;2.40;1.40;;;12.80;99.90;;;;;;6100945;23;20893;-60
2024/03/16 08:31:59;;;;;;;1.53;1.37;;;12.80;99.90;;;;;;6075186;23;20471;-57
2024/03/16 08:34:40;;;;;;;3.83;1.23;;;12.80;99.90;;;;;;6016930;23;20912;-59
2024/03/16 08:37:18;;;;;;;2.97;2.63;;;12.80;99.90;;;;;;6070702;23;20419;-60
2024/03/16 08:39:56;;;;;;;5.33;1.73;;;12.80;99.90;;;;;;6076416;23;20428;-57
2024/03/16 08:42:35;;;;;;;2.07;1.60;;;12.80;99.90;;;;;;6076258;23;20428;-61
2024/03/16 08:45:37;;;;;;;3.17;1.40;;;12.80;99.90;;;;;;6040928;23;20797;-58
2024/03/16 08:48:11;;;;;;;4.07;1.80;;;12.70;99.90;;;;;;6072329;23;20498;-56
2024/03/16 08:53:40;;;;;;;6.90;3.10;;;12.80;99.90;;;;;;5996842;23;20963;-60
2024/03/16 08:56:15;;;;;;;4.00;1.70;;;12.80;99.90;;;;;;5997966;23;20461;-60
2024/03/16 08:58:49;;;;;;;2.07;1.30;;;12.90;99.90;;;;;;6069580;23;20662;-59
2024/03/16 09:01:29;;;;;;;8.20;1.90;;;12.90;99.90;;;;;;6076173;23;20451;-58
2024/03/16 09:04:08;;;;;;;2.53;1.73;;;13.00;99.90;;;;;;6075765;23;20407;-58
2024/03/16 09:06:48;;;;;;;2.80;1.53;;;13.10;99.90;;;;;;6077513;23;20907;-60
2024/03/16 09:12:10;;;;;;;3.90;1.77;;;13.30;99.90;;;;;;6059537;23;20491;-58
2024/03/16 09:20:43;;;;;;;6.33;1.70;;;13.20;99.90;;;;;;6031509;23;20451;-59
2024/03/16 09:26:36;;;;;;;1.73;1.23;;;13.60;99.90;;;;;;5981174;23;20853;-58
2024/03/16 09:29:04;;;;;;;1.60;1.50;;;14.00;99.90;;;;;;5969138;23;21000;-58
2024/03/16 09:31:31;;;;;;;3.93;1.80;;;14.40;99.90;;;;;;6076867;23;20448;-56
2024/03/16 09:33:59;;;;;;;4.37;1.70;;;14.90;99.90;;;;;;6076590;23;20549;-56
2024/03/16 09:36:28;;;;;;;3.23;1.50;;;15.20;99.90;;;;;;6076313;23;20427;-61
2024/03/16 09:38:55;;;;;;;2.00;1.50;;;15.30;99.90;;;;;;6076189;23;20412;-59
2024/03/16 09:41:23;;;;;;;1.80;1.60;;;15.50;99.90;;;;;;6075246;23;20439;-58
2024/03/16 09:43:50;;;;;;;1.93;1.50;;;15.60;99.90;;;;;;6076105;23;20404;-59
2024/03/16 09:46:18;;;;;;;3.50;2.40;;;15.70;99.90;;;;;;6075682;23;20462;-59
2024/03/16 09:48:48;;;;;;;2.80;1.70;;;15.70;99.90;;;;;;6074261;23;20408;-59
2024/03/16 09:51:15;;;;;;;3.37;1.60;;;16.20;99.90;;;;;;6074897;23;20404;-59
2024/03/16 09:53:42;;;;;;;3.03;1.63;;;16.60;99.90;;;;;;6076704;23;20435;-59
2024/03/16 09:56:09;;;;;;;2.80;1.83;;;16.70;99.90;;;;;;6077225;23;20776;-59
2024/03/16 09:58:36;;;;;;;3.97;1.80;;;16.80;99.90;;;;;;6077915;23;20428;-60
2024/03/16 10:01:04;;;;;;;2.83;1.90;;;17.00;99.90;;;;;;6079064;23;20973;-59
2024/03/16 10:03:31;;;;;;;2.27;1.70;;;17.00;99.90;;;;;;6077930;23;20518;-57
2024/03/16 10:05:59;;;;;;;1.93;1.73;;;17.30;99.90;;;;;;6077815;23;20903;-59
2024/03/16 10:08:26;;;;;;;3.87;1.60;;;18.10;99.90;;;;;;6077284;23;20400;-58
2024/03/16 10:11:04;;;;;;;4.50;1.63;;;18.10;99.90;;;;;;6076497;23;20400;-58
2024/03/16 10:13:32;;;;;;;2.17;1.53;;;17.70;99.90;;;;;;6079001;23;20412;-60
2024/03/16 10:15:59;;;;;;;2.67;1.73;;;18.30;99.90;;;;;;6077900;23;20419;-60
2024/03/16 10:18:26;;;;;;;5.40;1.57;;;18.60;99.90;;;;;;6078484;23;20776;-61
2024/03/16 10:20:53;;;;;;;3.83;1.90;;;18.50;99.90;;;;;;6078199;23;20432;-60
2024/03/16 10:23:23;;;;;;;3.40;2.50;;;18.30;99.90;;;;;;6076754;23;20431;-58
2024/03/16 10:25:50;;;;;;;4.83;1.90;;;17.90;99.90;;;;;;6075627;23;21032;-58
2024/03/16 10:28:17;;;;;;;2.30;1.73;;;17.80;99.90;;;;;;6075470;23;20412;-58
2024/03/16 10:30:44;;;;;;;7.83;1.77;;;17.40;99.90;;;;;;6075949;23;20431;-59
2024/03/16 10:33:11;;;;;;;3.03;2.07;;;16.80;99.90;;;;;;6076433;23;20447;-59
2024/03/16 10:35:39;;;;;;;2.70;1.80;;;16.40;99.90;;;;;;6076566;23;20418;-59
2024/03/16 10:38:08;;;;;;;4.43;1.70;;;15.80;99.90;;;;;;6077380;23;20801;-60
2024/03/16 10:40:37;;;;;;;3.00;2.57;;;15.40;99.90;;;;;;6078456;23;20444;-59
2024/03/16 10:43:04;;;;;;;2.57;2.00;;;15.00;99.90;;;;;;6077692;23;20479;-58
2024/03/16 10:45:33;;;;;;;5.70;2.17;;;14.70;99.90;;;;;;6079668;23;20913;-59
2024/03/16 10:48:02;;;;;;;2.60;2.10;;;14.30;99.90;;;;;;6079778;23;20410;-60
2024/03/16 10:50:30;;;;;;;2.93;2.30;;;14.00;99.90;;;;;;6079940;23;20415;-60
2024/03/16 10:52:57;;;;;;;8.10;3.10;;;13.90;99.90;;;;;;6078018;23;20424;-60
2024/03/16 10:55:24;;;;;;;6.20;2.60;;;13.80;99.90;;;;;;6077965;23;20404;-58
2024/03/16 10:57:52;;;;;;;6.03;2.70;;;13.70;99.90;;;;;;6078525;23;21081;-58
2024/03/16 11:00:29;;;;;;;4.93;3.17;;;13.60;99.90;;;;;;6077241;23;21029;-60
2024/03/16 11:03:00;;;;;;;4.10;3.00;;;13.60;99.90;;;;;;6080178;23;20431;-59
2024/03/16 11:05:33;;;;;;;4.30;2.57;;;13.50;99.90;;;;;;6078135;23;20408;-58
2024/03/16 11:08:00;;;;;;;8.20;3.40;;;13.50;99.90;;;;;;6077273;23;20471;-58
2024/03/16 11:10:38;;;;;;;5.27;3.20;;;13.50;99.90;;;;;;6053320;23;20412;-58
2024/03/16 11:13:15;;;;;;;4.50;2.70;;;13.60;99.90;;;;;;6077535;23;20428;-57
2024/03/16 11:15:42;;;;;;;4.10;3.27;;;13.70;99.90;;;;;;6079263;23;20392;-60
2024/03/16 11:18:52;;;;;;;5.27;3.17;;;13.70;99.90;;;;;;6078038;23;20401;-60
2024/03/16 11:21:20;;;;;;;3.70;2.93;;;13.70;99.90;;;;;;6103541;23;20467;-58
2024/03/16 11:23:48;;;;;;;4.63;2.80;;;13.50;99.90;;;;;;6077773;23;20585;-59
2024/03/16 11:26:31;;;;;;;6.30;3.67;;;13.70;99.90;;;;;;6076793;23;20491;-59
2024/03/16 11:29:09;;;;;;;4.57;3.20;;;14.00;99.90;;;;;;6074644;23;20954;-57
2024/03/16 11:31:37;;;;;;;5.30;3.17;;;14.20;99.90;;;;;;6076175;23;20440;-59
2024/03/16 11:34:05;;;;;;;5.23;3.30;;;14.30;99.90;;;;;;6076346;23;20408;-60
2024/03/16 11:36:33;;;;;;;3.30;2.40;;;14.20;99.90;;;;;;6076072;23;20408;-59
2024/03/16 11:39:10;;;;;;;4.70;3.00;;;14.20;99.90;;;;;;6077265;23;20402;-60
2024/03/16 11:41:42;;;;;;;4.07;3.20;;;13.90;99.90;;;;;;6077720;23;20515;-58
2024/03/16 11:44:16;;;;;;;3.60;2.23;;;13.70;99.90;;;;;;6078960;23;20407;-59
2024/03/16 11:46:42;;;;;;;3.73;2.90;;;13.40;99.90;;;;;;6076751;23;20377;-59
2024/03/16 11:49:14;;;;;;;4.67;4.07;;;13.40;99.90;;;;;;6076774;23;20392;-58
2024/03/16 11:51:41;;;;;;;6.50;3.07;;;13.30;99.90;;;;;;6078251;23;20464;-59
2024/03/16 11:54:08;;;;;;;7.30;3.07;;;13.10;99.90;;;;;;6078421;23;20788;-60
2024/03/16 11:56:35;;;;;;;6.30;3.53;;;13.00;99.90;;;;;;6077973;23;20428;-61
2024/03/16 11:59:04;;;;;;;7.13;3.07;;;12.80;99.90;;;;;;6077389;23;20485;-59
2024/03/16 12:01:33;;;;;;;4.57;2.77;;;12.60;99.90;;;;;;6076573;23;20451;-59
2024/03/16 12:04:01;;;;;;;4.50;2.80;;;12.30;99.90;;;;;;6077732;23;20479;-59
2024/03/16 12:06:27;;;;;;;4.17;3.17;;;12.20;99.90;;;;;;6079572;23;20412;-59
2024/03/16 12:08:54;;;;;;;3.77;2.30;;;12.10;99.90;;;;;;6077615;23;20424;-59
2024/03/16 12:11:20;;;;;;;4.30;3.00;;;12.00;99.90;;;;;;6078014;23;20404;-58
2024/03/16 12:13:47;;;;;;;6.27;3.50;;;11.90;99.90;;;;;;6076781;23;20403;-58
2024/03/16 12:16:14;;;;;;;4.93;3.10;;;11.90;99.90;;;;;;6075889;23;20784;-59
2024/03/16 12:18:41;;;;;;;4.27;3.00;;;11.90;99.90;;;;;;6077271;23;20464;-59
2024/03/16 12:21:07;;;;;;;4.80;2.63;;;11.90;99.90;;;;;;6077277;23;20498;-59
2024/03/16 12:23:37;;;;;;;3.80;2.23;;;11.90;99.90;;;;;;6077848;23;20449;-59
2024/03/16 12:26:03;;;;;;;4.10;2.73;;;11.80;99.90;;;;;;6075789;23;20562;-60
2024/03/16 12:28:30;;;;;;;5.83;2.60;;;11.90;99.90;;;;;;6076620;23;20529;-58
2024/03/16 12:30:59;;;;;;;4.57;3.77;;;11.80;99.90;;;;;;6077661;23;20408;-60
2024/03/16 12:33:27;;;;;;;5.80;3.50;;;11.70;99.90;;;;;;6076877;23;20483;-60
2024/03/16 12:35:53;;;;;;;6.70;3.20;;;11.60;99.90;;;;;;6078332;23;20416;-60
2024/03/16 12:38:20;;;;;;;5.67;2.90;;;11.60;99.90;;;;;;6077325;23;20404;-59
2024/03/16 12:40:47;;;;;;;5.20;2.70;;;11.70;99.90;;;;;;6078129;23;20444;-60
2024/03/16 12:43:13;;;;;;;5.43;2.60;;;11.70;99.90;;;;;;6079429;23;20427;-60
2024/03/16 12:45:40;;;;;;;4.23;2.70;;;11.70;99.90;;;;;;6077693;23;20499;-60
2024/03/16 12:48:06;;;;;;;4.60;2.37;;;11.80;99.90;;;;;;6075115;23;20410;-61
2024/03/16 12:50:34;;;;;;;3.70;2.80;;;11.80;99.90;;;;;;6076505;23;20412;-58
2024/03/16 12:53:00;;;;;;;3.40;2.20;;;11.80;99.90;;;;;;6077568;23;20442;-59
2024/03/16 12:55:27;;;;;;;4.00;3.10;;;11.70;99.90;;;;;;6077702;23;20411;-60
2024/03/16 12:57:53;;;;;;;4.13;2.50;;;11.60;99.90;;;;;;6077212;23;20953;-58
2024/03/16 13:00:20;;;;;;;8.13;2.70;;;11.60;99.90;;;;;;6078229;23;20464;-55
2024/03/16 13:02:46;;;;;;;3.40;2.40;;;11.60;99.90;;;;;;6076850;23;20585;-58
2024/03/16 13:05:15;;;;;;;5.67;3.03;;;11.50;99.90;;;;;;6076469;23;20448;-59
2024/03/16 13:07:41;;;;;;;2.80;2.20;;;11.40;99.90;;;;;;6078403;23;20419;-58